createdAt,value
2018-07-31T00:00:54.938Z,93.23
2018-07-31T00:01:54.914Z,93.81
2018-07-31T00:02:54.858Z,94.10
2018-07-31T00:03:54.829Z,94.68
2018-07-31T00:04:54.794Z,94.78
2018-07-31T00:05:54.753Z,95.31
2018-07-31T00:06:54.744Z,94.39
2018-07-31T00:07:54.678Z,94.87
2018-07-31T00:08:54.642Z,94.78
2018-07-31T00:09:54.619Z,94.58
2018-07-31T00:10:54.579Z,95.16
2018-07-31T00:11:54.544Z,95.36
2018-07-31T00:12:54.531Z,95.98
2018-07-31T00:13:54.463Z,96.66
2018-07-31T00:14:54.431Z,96.94
2018-07-31T00:15:54.395Z,96.94
2018-07-31T00:16:54.361Z,96.70
2018-07-31T00:17:54.354Z,95.84
2018-07-31T00:18:54.299Z,95.93
2018-07-31T00:19:54.253Z,95.74
2018-07-31T00:20:54.213Z,99.02
2018-07-31T00:21:54.190Z,98.44
2018-07-31T00:22:54.175Z,97.96
2018-07-31T00:23:54.116Z,98.54
2018-07-31T00:24:54.081Z,96.89
2018-07-31T00:25:54.040Z,97.38
2018-07-31T00:26:54.004Z,97.77
2018-07-31T00:27:53.995Z,98.54
2018-07-31T00:28:53.933Z,97.57
2018-07-31T00:29:53.901Z,98.44
2018-07-31T00:30:53.867Z,97.67
2018-07-31T00:31:53.832Z,98.63
2018-07-31T00:32:53.801Z,97.47
2018-07-31T00:33:53.775Z,98.25
2018-07-31T00:34:53.718Z,98.34
2018-07-31T00:35:53.693Z,99.02
2018-07-31T00:36:53.654Z,99.99
2018-07-31T00:37:53.611Z,99.99
2018-07-31T00:38:53.599Z,99.99
2018-07-31T00:39:53.537Z,99.99
2018-07-31T00:40:53.505Z,99.98
2018-07-31T00:41:53.476Z,99.99
2018-07-31T00:42:53.437Z,99.99
2018-07-31T00:43:53.433Z,99.99
2018-07-31T00:44:53.368Z,99.99
2018-07-31T00:45:53.324Z,99.99
2018-07-31T00:46:53.289Z,99.99
2018-07-31T00:47:53.254Z,99.99
2018-07-31T00:48:53.218Z,99.99
2018-07-31T00:49:53.210Z,99.99
2018-07-31T00:50:53.155Z,99.99
2018-07-31T00:51:53.108Z,99.99
2018-07-31T00:52:53.076Z,99.99
2018-07-31T00:53:53.046Z,99.99
2018-07-31T00:54:53.037Z,99.99
2018-07-31T00:55:52.977Z,99.99
2018-07-31T00:56:52.940Z,99.99
2018-07-31T00:57:52.895Z,99.99
2018-07-31T00:58:52.859Z,99.99
2018-07-31T00:59:52.847Z,99.99
2018-07-31T01:00:52.792Z,99.99
2018-07-31T01:01:52.760Z,99.99
2018-07-31T01:02:52.726Z,99.99
2018-07-31T01:03:52.689Z,99.99
2018-07-31T01:04:52.681Z,99.99
2018-07-31T01:05:52.612Z,99.99
2018-07-31T01:06:52.574Z,99.99
2018-07-31T01:07:52.548Z,99.99
2018-07-31T01:08:52.508Z,99.99
2018-07-31T01:09:52.465Z,99.99
2018-07-31T01:10:52.477Z,99.99
2018-07-31T01:11:52.398Z,99.99
2018-07-31T01:12:52.362Z,99.99
2018-07-31T01:13:52.332Z,99.99
2018-07-31T01:14:52.296Z,99.99
2018-07-31T01:15:52.281Z,99.99
2018-07-31T01:16:52.224Z,99.99
2018-07-31T01:17:52.180Z,99.99
2018-07-31T01:18:52.144Z,99.99
2018-07-31T01:19:52.110Z,99.99
2018-07-31T01:20:52.100Z,99.99
2018-07-31T01:21:52.047Z,99.99
2018-07-31T01:22:52.011Z,99.99
2018-07-31T01:23:51.965Z,99.99
2018-07-31T01:24:51.931Z,99.99
2018-07-31T01:25:51.901Z,99.99
2018-07-31T01:26:51.884Z,99.99
2018-07-31T01:27:51.830Z,99.99
2018-07-31T01:28:51.793Z,99.99
2018-07-31T01:29:51.753Z,99.99
2018-07-31T01:30:51.715Z,99.99
2018-07-31T01:31:51.698Z,99.99
2018-07-31T01:32:51.643Z,99.99
2018-07-31T01:33:51.616Z,99.99
2018-07-31T01:34:51.577Z,99.99
2018-07-31T01:35:51.541Z,99.99
2018-07-31T01:36:51.525Z,99.99
2018-07-31T01:37:51.461Z,99.99
2018-07-31T01:38:51.425Z,99.99
2018-07-31T01:39:51.399Z,99.99
2018-07-31T01:40:51.361Z,99.99
2018-07-31T01:41:51.345Z,99.99
2018-07-31T01:42:51.283Z,99.99
2018-07-31T01:43:51.249Z,99.99
2018-07-31T01:44:51.210Z,99.99
2018-07-31T01:45:51.183Z,99.99
2018-07-31T01:46:51.149Z,99.99
2018-07-31T01:47:51.131Z,99.99
2018-07-31T01:48:51.073Z,99.99
2018-07-31T01:49:51.033Z,99.99
2018-07-31T01:50:50.997Z,99.99
2018-07-31T01:51:50.956Z,99.99
2018-07-31T01:52:50.943Z,99.99
2018-07-31T01:53:50.892Z,99.99
2018-07-31T01:54:50.858Z,99.99
2018-07-31T01:55:50.816Z,99.99
2018-07-31T01:56:50.776Z,99.99
2018-07-31T01:57:50.774Z,99.99
2018-07-31T01:58:50.709Z,99.99
2018-07-31T01:59:50.682Z,99.99
2018-07-31T02:00:50.641Z,99.99
2018-07-31T02:01:50.597Z,99.99
2018-07-31T02:02:50.562Z,99.99
2018-07-31T02:03:50.547Z,99.99
2018-07-31T02:04:50.488Z,99.99
2018-07-31T02:05:50.457Z,99.99
2018-07-31T02:06:50.427Z,99.99
2018-07-31T02:07:50.413Z,99.99
2018-07-31T02:08:50.373Z,99.99
2018-07-31T02:09:50.308Z,99.99
2018-07-31T02:10:50.271Z,99.99
2018-07-31T02:11:50.241Z,99.99
2018-07-31T02:12:50.206Z,99.99
2018-07-31T02:13:50.182Z,99.99
2018-07-31T02:14:50.127Z,99.99
2018-07-31T02:15:50.092Z,99.99
2018-07-31T02:16:50.076Z,99.99
2018-07-31T02:17:50.026Z,99.99
2018-07-31T02:18:50.015Z,99.99
2018-07-31T02:19:49.954Z,99.99
2018-07-31T02:20:49.917Z,99.99
2018-07-31T02:21:49.872Z,99.99
2018-07-31T02:22:49.835Z,99.99
2018-07-31T02:23:49.802Z,99.99
2018-07-31T02:24:49.786Z,99.99
2018-07-31T02:25:49.737Z,99.99
2018-07-31T02:26:49.701Z,99.99
2018-07-31T02:27:49.658Z,99.99
2018-07-31T02:28:49.624Z,99.99
2018-07-31T02:29:49.619Z,99.99
2018-07-31T02:30:49.554Z,99.99
2018-07-31T02:31:49.519Z,99.99
2018-07-31T02:32:49.487Z,99.99
2018-07-31T02:33:49.438Z,99.99
2018-07-31T02:34:49.430Z,99.99
2018-07-31T02:35:49.365Z,99.99
2018-07-31T02:36:49.331Z,99.99
2018-07-31T02:37:49.300Z,99.99
2018-07-31T02:38:49.265Z,99.99
2018-07-31T02:39:49.230Z,99.99
2018-07-31T02:40:49.215Z,99.99
2018-07-31T02:41:49.149Z,99.99
2018-07-31T02:42:49.112Z,99.99
2018-07-31T02:43:49.086Z,99.99
2018-07-31T02:44:49.050Z,99.99
2018-07-31T02:45:49.032Z,99.99
2018-07-31T02:46:49.005Z,99.99
2018-07-31T02:47:48.933Z,99.99
2018-07-31T02:48:48.896Z,99.99
2018-07-31T02:49:48.870Z,99.99
2018-07-31T02:50:48.857Z,99.99
2018-07-31T02:51:48.792Z,99.99
2018-07-31T02:52:48.758Z,99.99
2018-07-31T02:53:48.715Z,99.99
2018-07-31T02:54:48.678Z,99.99
2018-07-31T02:55:48.642Z,99.99
2018-07-31T02:56:48.625Z,99.99
2018-07-31T02:57:48.579Z,99.99
2018-07-31T02:58:48.541Z,99.99
2018-07-31T02:59:48.496Z,99.99
2018-07-31T03:00:48.462Z,99.99
2018-07-31T03:01:48.454Z,99.99
2018-07-31T03:02:48.393Z,99.99
2018-07-31T03:03:48.358Z,99.99
2018-07-31T03:04:48.322Z,99.99
2018-07-31T03:05:48.281Z,99.99
2018-07-31T03:06:48.263Z,99.99
2018-07-31T03:07:48.218Z,99.99
2018-07-31T03:08:48.169Z,99.99
2018-07-31T03:09:48.144Z,99.99
2018-07-31T03:10:48.106Z,99.99
2018-07-31T03:11:48.093Z,99.99
2018-07-31T03:12:48.044Z,99.99
2018-07-31T03:13:47.988Z,99.99
2018-07-31T03:14:47.952Z,99.99
2018-07-31T03:15:47.921Z,99.99
2018-07-31T03:16:47.897Z,99.99
2018-07-31T03:17:47.864Z,99.99
2018-07-31T03:18:47.805Z,99.99
2018-07-31T03:19:47.775Z,99.99
2018-07-31T03:20:47.734Z,99.99
2018-07-31T03:21:47.705Z,99.99
2018-07-31T03:22:47.698Z,99.99
2018-07-31T03:23:47.633Z,99.99
2018-07-31T03:24:47.595Z,99.99
2018-07-31T03:25:47.551Z,99.99
2018-07-31T03:26:47.515Z,99.99
2018-07-31T03:27:47.505Z,99.99
2018-07-31T03:28:47.443Z,99.99
2018-07-31T03:29:47.412Z,99.99
2018-07-31T03:30:47.377Z,99.99
2018-07-31T03:31:47.334Z,99.99
2018-07-31T03:32:47.295Z,99.99
2018-07-31T03:33:47.287Z,99.99
2018-07-31T03:34:47.229Z,99.99
2018-07-31T03:35:47.195Z,99.99
2018-07-31T03:36:47.157Z,99.99
2018-07-31T03:37:47.115Z,99.99
2018-07-31T03:38:47.100Z,99.99
2018-07-31T03:39:47.046Z,99.99
2018-07-31T03:40:47.004Z,99.99
2018-07-31T03:41:46.976Z,99.99
2018-07-31T03:42:46.942Z,99.99
2018-07-31T03:43:46.927Z,99.99
2018-07-31T03:44:46.865Z,99.99
2018-07-31T03:45:46.826Z,99.99
2018-07-31T03:46:46.786Z,99.99
2018-07-31T03:47:46.759Z,99.99
2018-07-31T03:48:46.720Z,99.99
2018-07-31T03:49:46.700Z,99.99
2018-07-31T03:50:46.640Z,99.99
2018-07-31T03:51:46.602Z,99.99
2018-07-31T03:52:46.566Z,99.99
2018-07-31T03:53:46.540Z,99.99
2018-07-31T03:54:46.523Z,99.99
2018-07-31T03:55:46.464Z,99.99
2018-07-31T03:56:46.431Z,99.99
2018-07-31T03:57:46.384Z,99.99
2018-07-31T03:58:46.348Z,99.99
2018-07-31T03:59:46.334Z,99.99
2018-07-31T04:00:46.276Z,99.99
2018-07-31T04:01:46.249Z,99.99
2018-07-31T04:02:46.210Z,99.99
2018-07-31T04:03:46.167Z,99.99
2018-07-31T04:04:46.186Z,99.99
2018-07-31T04:05:46.101Z,99.99
2018-07-31T04:06:56.208Z,99.99
2018-07-31T04:07:46.024Z,99.99
2018-07-31T04:08:45.984Z,99.99
2018-07-31T04:09:45.944Z,99.99
2018-07-31T04:10:45.935Z,99.99
2018-07-31T04:11:45.882Z,99.99
2018-07-31T04:12:45.847Z,99.99
2018-07-31T04:13:45.806Z,99.99
2018-07-31T04:14:45.769Z,99.99
2018-07-31T04:15:45.748Z,99.99
2018-07-31T04:16:45.718Z,99.99
2018-07-31T04:17:45.662Z,99.99
2018-07-31T04:18:45.626Z,99.99
2018-07-31T04:19:45.588Z,99.99
2018-07-31T04:20:45.567Z,99.99
2018-07-31T04:21:45.508Z,99.99
2018-07-31T04:22:45.472Z,99.99
2018-07-31T04:23:45.440Z,99.99
2018-07-31T04:24:45.409Z,99.99
2018-07-31T04:25:45.396Z,99.99
2018-07-31T04:26:45.333Z,99.99
2018-07-31T04:27:45.289Z,99.99
2018-07-31T04:28:45.256Z,99.99
2018-07-31T04:29:45.216Z,99.99
2018-07-31T04:30:45.178Z,99.99
2018-07-31T04:31:45.172Z,99.99
2018-07-31T04:32:45.112Z,99.99
2018-07-31T04:33:45.072Z,99.99
2018-07-31T04:34:45.032Z,99.99
2018-07-31T04:35:45.020Z,99.99
2018-07-31T04:36:44.990Z,99.99
2018-07-31T04:37:44.934Z,99.99
2018-07-31T04:38:44.900Z,99.99
2018-07-31T04:39:44.851Z,99.99
2018-07-31T04:40:44.815Z,99.99
2018-07-31T04:41:44.813Z,99.99
2018-07-31T04:42:44.741Z,99.99
2018-07-31T04:43:44.714Z,99.99
2018-07-31T04:44:44.677Z,99.99
2018-07-31T04:45:44.641Z,99.99
2018-07-31T04:46:44.606Z,99.99
2018-07-31T04:47:44.590Z,99.99
2018-07-31T04:48:44.521Z,99.99
2018-07-31T04:49:44.502Z,99.99
2018-07-31T04:50:44.457Z,99.99
2018-07-31T04:51:44.413Z,99.99
2018-07-31T04:52:44.442Z,99.99
2018-07-31T04:53:44.346Z,99.99
2018-07-31T04:54:44.307Z,99.99
2018-07-31T04:55:44.277Z,99.99
2018-07-31T04:56:44.257Z,99.99
2018-07-31T04:57:44.231Z,99.99
2018-07-31T04:58:44.174Z,99.99
2018-07-31T04:59:44.125Z,99.99
2018-07-31T05:00:44.088Z,99.99
2018-07-31T05:01:44.055Z,99.99
2018-07-31T05:02:44.043Z,99.99
2018-07-31T05:03:43.989Z,99.99
2018-07-31T05:04:43.953Z,99.99
2018-07-31T05:05:54.272Z,99.99
2018-07-31T05:06:43.882Z,99.99
2018-07-31T05:07:43.844Z,99.99
2018-07-31T05:08:43.832Z,99.99
2018-07-31T05:09:43.766Z,99.99
2018-07-31T05:10:43.729Z,99.99
2018-07-31T05:11:43.697Z,99.99
2018-07-31T05:12:43.658Z,99.99
2018-07-31T05:13:43.652Z,99.99
2018-07-31T05:14:43.594Z,99.99
2018-07-31T05:15:43.560Z,99.99
2018-07-31T05:16:43.521Z,98.54
2018-07-31T05:17:43.485Z,94.57
2018-07-31T05:18:43.476Z,91.17
2018-07-31T05:19:43.413Z,87.52
2018-07-31T05:20:43.388Z,86.11
2018-07-31T05:21:43.346Z,84.01
2018-07-31T05:22:43.305Z,82.21
2018-07-31T05:23:43.267Z,79.92
2018-07-31T05:24:43.258Z,78.99
2018-07-31T05:25:43.209Z,77.82
2018-07-31T05:26:53.313Z,78.50
2018-07-31T05:27:43.130Z,79.78
2018-07-31T05:28:43.095Z,78.79
2018-07-31T05:29:43.076Z,76.78
2018-07-31T05:30:43.022Z,77.14
2018-07-31T05:31:42.998Z,78.46
2018-07-31T05:32:43.019Z,80.36
2018-07-31T05:33:42.923Z,81.04
2018-07-31T05:34:42.931Z,81.04
2018-07-31T05:35:42.868Z,79.72
2018-07-31T05:36:42.826Z,78.34
2018-07-31T05:37:42.793Z,75.46
2018-07-31T05:38:42.757Z,74.87
2018-07-31T05:39:42.715Z,75.42
2018-07-31T05:40:42.704Z,76.30
2018-07-31T05:41:42.647Z,75.26
2018-07-31T05:42:42.663Z,75.01
2018-07-31T05:43:42.589Z,75.16
2018-07-31T05:44:42.555Z,73.84
2018-07-31T05:45:52.359Z,73.10
2018-07-31T05:46:42.482Z,72.09
2018-07-31T05:47:42.458Z,72.67
2018-07-31T05:48:42.423Z,72.80
2018-07-31T05:49:42.382Z,71.86
2018-07-31T05:50:42.377Z,70.63
2018-07-31T05:51:42.321Z,69.69
2018-07-31T05:52:42.285Z,68.52
2018-07-31T05:53:42.260Z,68.85
2018-07-31T05:54:42.221Z,67.35
2018-07-31T05:55:42.199Z,65.30
2018-07-31T05:56:42.195Z,64.67
2018-07-31T05:57:42.120Z,63.24
2018-07-31T05:58:42.088Z,60.49
2018-07-31T05:59:42.053Z,60.88
2018-07-31T06:00:42.024Z,60.13
2018-07-31T06:01:42.023Z,62.35
2018-07-31T06:02:41.966Z,62.16
2018-07-31T06:03:41.935Z,60.39
2018-07-31T06:04:53.386Z,59.05
2018-07-31T06:05:41.876Z,58.72
2018-07-31T06:06:41.863Z,62.10
2018-07-31T06:07:41.800Z,65.85
2018-07-31T06:08:41.771Z,69.29
2018-07-31T06:09:41.781Z,72.31
2018-07-31T06:10:41.704Z,73.12
2018-07-31T06:11:41.711Z,70.95
2018-07-31T06:12:41.659Z,70.43
2018-07-31T06:13:41.617Z,69.95
2018-07-31T06:14:41.584Z,70.50
2018-07-31T06:15:41.550Z,71.76
2018-07-31T06:16:41.517Z,74.57
2018-07-31T06:17:41.521Z,76.81
2018-07-31T06:18:41.510Z,78.13
2018-07-31T06:19:41.425Z,78.61
2018-07-31T06:20:41.393Z,80.19
2018-07-31T06:21:41.361Z,81.35
2018-07-31T06:22:41.392Z,81.60
2018-07-31T06:23:41.310Z,82.92
2018-07-31T06:24:41.278Z,84.09
2018-07-31T06:25:51.920Z,83.80
2018-07-31T06:26:41.207Z,84.63
2018-07-31T06:27:41.199Z,85.60
2018-07-31T06:28:41.134Z,87.05
2018-07-31T06:29:41.110Z,87.63
2018-07-31T06:30:41.082Z,87.34
2018-07-31T06:31:41.039Z,88.46
2018-07-31T06:32:41.034Z,89.33
2018-07-31T06:33:40.975Z,88.27
2018-07-31T06:34:40.946Z,89.72
2018-07-31T06:35:40.918Z,88.56
2018-07-31T06:36:40.880Z,88.41
2018-07-31T06:37:40.842Z,87.01
2018-07-31T06:38:40.839Z,90.11
2018-07-31T06:39:40.776Z,87.58
2018-07-31T06:40:40.746Z,83.28
2018-07-31T06:41:40.715Z,77.37
2018-07-31T06:42:40.684Z,78.23
2018-07-31T06:43:40.677Z,80.71
2018-07-31T06:44:40.617Z,82.23
2018-07-31T06:45:40.579Z,82.90
2018-07-31T06:46:40.540Z,82.77
2018-07-31T06:47:40.514Z,84.86
2018-07-31T06:48:40.500Z,85.93
2018-07-31T06:49:40.468Z,85.29
2018-07-31T06:50:40.411Z,81.84
2018-07-31T06:51:40.378Z,82.71
2018-07-31T06:52:40.343Z,81.49
2018-07-31T06:53:40.321Z,81.04
2018-07-31T06:54:40.313Z,81.14
2018-07-31T06:55:40.251Z,78.53
2018-07-31T06:56:40.229Z,75.30
2018-07-31T06:57:40.182Z,73.74
2018-07-31T06:58:40.145Z,75.36
2018-07-31T06:59:40.133Z,75.91
2018-07-31T07:00:40.081Z,76.94
2018-07-31T07:01:40.053Z,77.43
2018-07-31T07:02:48.476Z,78.03
2018-07-31T07:03:40.005Z,78.11
2018-07-31T07:04:39.981Z,77.97
2018-07-31T07:05:39.927Z,78.52
2018-07-31T07:06:39.893Z,79.04
2018-07-31T07:07:39.846Z,76.65
2018-07-31T07:08:39.820Z,75.36
2018-07-31T07:09:39.785Z,75.23
2018-07-31T07:10:39.773Z,75.81
2018-07-31T07:11:39.726Z,77.04
2018-07-31T07:12:39.699Z,77.00
2018-07-31T07:13:39.661Z,76.84
2018-07-31T07:14:39.627Z,75.16
2018-07-31T07:15:39.611Z,73.49
2018-07-31T07:16:39.559Z,73.94
2018-07-31T07:17:39.530Z,74.39
2018-07-31T07:18:39.502Z,76.78
2018-07-31T07:19:39.461Z,75.56
2018-07-31T07:20:39.450Z,76.75
2018-07-31T07:21:39.394Z,76.65
2018-07-31T07:22:39.385Z,77.17
2018-07-31T07:23:39.337Z,76.84
2018-07-31T07:24:39.301Z,76.55
2018-07-31T07:25:39.272Z,77.00
2018-07-31T07:26:39.262Z,78.71
2018-07-31T07:27:39.199Z,78.85
2018-07-31T07:28:39.169Z,77.01
2018-07-31T07:29:39.132Z,71.47
2018-07-31T07:30:39.109Z,67.71
2018-07-31T07:31:39.100Z,66.08
2018-07-31T07:32:39.042Z,61.90
2018-07-31T07:33:39.103Z,61.40
2018-07-31T07:34:38.969Z,59.83
2018-07-31T07:35:38.947Z,59.86
2018-07-31T07:36:38.936Z,59.97
2018-07-31T07:37:38.887Z,61.66
2018-07-31T07:38:38.853Z,62.08
2018-07-31T07:39:38.814Z,59.01
2018-07-31T07:40:38.781Z,60.46
2018-07-31T07:41:38.787Z,61.44
2018-07-31T07:42:38.721Z,65.03
2018-07-31T07:43:38.696Z,65.10
2018-07-31T07:44:38.669Z,65.59
2018-07-31T07:45:38.641Z,66.20
2018-07-31T07:46:38.606Z,63.76
2018-07-31T07:47:38.593Z,64.18
2018-07-31T07:48:38.540Z,62.48
2018-07-31T07:49:38.519Z,61.70
2018-07-31T07:50:38.493Z,61.77
2018-07-31T07:51:38.448Z,64.68
2018-07-31T07:52:38.444Z,65.43
2018-07-31T07:53:38.397Z,64.25
2018-07-31T07:54:38.363Z,65.23
2018-07-31T07:55:38.342Z,62.05
2018-07-31T07:56:38.318Z,61.79
2018-07-31T07:57:38.305Z,58.65
2018-07-31T07:58:38.259Z,60.29
2018-07-31T07:59:38.218Z,60.97
2018-07-31T08:00:38.196Z,59.80
2018-07-31T08:01:38.162Z,60.00
2018-07-31T08:02:48.052Z,61.44
2018-07-31T08:03:38.120Z,60.85
2018-07-31T08:04:38.076Z,61.27
2018-07-31T08:05:38.056Z,60.65
2018-07-31T08:06:38.027Z,61.96
2018-07-31T08:07:37.997Z,60.26
2018-07-31T08:08:37.992Z,60.00
2018-07-31T08:09:37.971Z,59.50
2018-07-31T08:10:37.920Z,59.55
2018-07-31T08:11:37.882Z,60.47
2018-07-31T08:12:37.852Z,62.13
2018-07-31T08:13:37.858Z,62.79
2018-07-31T08:14:37.807Z,63.21
2018-07-31T08:15:37.781Z,64.75
2018-07-31T08:16:37.751Z,67.68
2018-07-31T08:17:37.716Z,66.86
2018-07-31T08:18:37.724Z,66.83
2018-07-31T08:19:37.665Z,69.56
2018-07-31T08:20:37.639Z,68.49
2018-07-31T08:21:37.604Z,66.63
2018-07-31T08:22:46.078Z,67.51
2018-07-31T08:23:37.559Z,68.03
2018-07-31T08:24:37.547Z,67.44
2018-07-31T08:25:37.496Z,68.07
2018-07-31T08:26:37.468Z,66.86
2018-07-31T08:27:37.439Z,66.50
2018-07-31T08:28:37.399Z,67.38
2018-07-31T08:29:37.392Z,67.38
2018-07-31T08:30:37.347Z,67.97
2018-07-31T08:31:37.319Z,64.51
2018-07-31T08:32:37.322Z,62.09
2018-07-31T08:33:37.298Z,61.80
2018-07-31T08:34:37.245Z,61.67
2018-07-31T08:35:37.203Z,62.68
2018-07-31T08:36:37.196Z,61.44
2018-07-31T08:37:37.157Z,59.83
2018-07-31T08:38:37.117Z,57.53
2018-07-31T08:39:37.107Z,57.70
2018-07-31T08:40:37.053Z,59.24
2018-07-31T08:41:48.119Z,62.34
2018-07-31T08:42:37.009Z,56.94
2018-07-31T08:43:36.984Z,56.55
2018-07-31T08:44:36.955Z,56.11
2018-07-31T08:45:36.941Z,55.15
2018-07-31T08:46:36.893Z,57.62
2018-07-31T08:47:36.872Z,58.76
2018-07-31T08:48:36.850Z,58.93
2018-07-31T08:49:36.814Z,58.93
2018-07-31T08:50:36.807Z,59.55
2018-07-31T08:51:36.763Z,61.67
2018-07-31T08:52:36.737Z,59.16
2018-07-31T08:53:36.720Z,57.81
2018-07-31T08:54:36.701Z,58.06
2018-07-31T08:55:36.730Z,56.52
2018-07-31T08:56:36.663Z,55.44
2018-07-31T08:57:36.614Z,55.12
2018-07-31T08:58:36.584Z,55.64
2018-07-31T08:59:36.568Z,56.30
2018-07-31T09:00:46.665Z,55.93
2018-07-31T09:01:36.530Z,54.88
2018-07-31T09:02:36.487Z,54.46
2018-07-31T09:03:36.466Z,54.58
2018-07-31T09:04:36.483Z,54.41
2018-07-31T09:05:36.418Z,54.32
2018-07-31T09:06:36.416Z,54.22
2018-07-31T09:07:36.364Z,55.29
2018-07-31T09:08:36.456Z,57.52
2018-07-31T09:09:36.313Z,57.26
2018-07-31T09:10:36.286Z,59.55
2018-07-31T09:11:36.298Z,57.81
2018-07-31T09:12:36.247Z,56.31
2018-07-31T09:13:36.220Z,57.10
2018-07-31T09:14:36.204Z,57.78
2018-07-31T09:15:36.164Z,56.90
2018-07-31T09:16:36.143Z,57.49
2018-07-31T09:17:36.179Z,55.24
2018-07-31T09:18:36.095Z,56.54
2018-07-31T09:19:36.090Z,57.52
2018-07-31T09:20:36.035Z,55.19
2018-07-31T09:21:36.011Z,54.44
2018-07-31T09:22:36.011Z,54.10
2018-07-31T09:23:35.966Z,53.41
2018-07-31T09:24:36.014Z,53.97
2018-07-31T09:25:35.915Z,53.26
2018-07-31T09:26:35.886Z,53.50
2018-07-31T09:27:35.879Z,54.36
2018-07-31T09:28:35.836Z,54.49
2018-07-31T09:29:35.807Z,54.56
2018-07-31T09:30:35.845Z,53.28
2018-07-31T09:31:35.763Z,54.39
2018-07-31T09:32:35.766Z,54.58
2018-07-31T09:33:35.703Z,52.80
2018-07-31T09:34:35.681Z,54.24
2018-07-31T09:35:35.666Z,53.55
2018-07-31T09:36:35.699Z,52.52
2018-07-31T09:37:35.613Z,53.67
2018-07-31T09:38:35.606Z,53.47
2018-07-31T09:39:35.556Z,53.18
2018-07-31T09:40:45.703Z,54.94
2018-07-31T09:41:35.514Z,54.23
2018-07-31T09:42:35.493Z,55.11
2018-07-31T09:43:35.484Z,54.62
2018-07-31T09:44:35.432Z,53.35
2018-07-31T09:45:35.398Z,52.67
2018-07-31T09:46:35.374Z,53.08
2018-07-31T09:47:35.349Z,51.51
2018-07-31T09:48:35.361Z,51.90
2018-07-31T09:49:35.312Z,50.93
2018-07-31T09:50:35.288Z,52.08
2018-07-31T09:51:35.240Z,54.75
2018-07-31T09:52:35.210Z,54.75
2018-07-31T09:53:35.192Z,53.69
2018-07-31T09:54:35.185Z,51.37
2018-07-31T09:55:35.143Z,51.66
2018-07-31T09:56:35.105Z,51.46
2018-07-31T09:57:35.075Z,51.34
2018-07-31T09:58:35.050Z,52.23
2018-07-31T09:59:35.041Z,53.59
2018-07-31T10:00:43.263Z,52.69
2018-07-31T10:01:34.967Z,53.57
2018-07-31T10:02:34.935Z,53.35
2018-07-31T10:03:34.915Z,54.43
2018-07-31T10:04:34.913Z,54.62
2018-07-31T10:05:34.862Z,54.69
2018-07-31T10:06:34.832Z,55.90
2018-07-31T10:07:34.801Z,54.33
2018-07-31T10:08:34.771Z,53.84
2018-07-31T10:09:34.744Z,54.46
2018-07-31T10:10:34.749Z,54.55
2018-07-31T10:11:34.695Z,54.60
2018-07-31T10:12:34.668Z,52.08
2018-07-31T10:13:34.638Z,51.79
2018-07-31T10:14:34.610Z,51.72
2018-07-31T10:15:34.599Z,51.05
2018-07-31T10:16:34.553Z,49.60
2018-07-31T10:17:34.539Z,49.90
2018-07-31T10:18:34.507Z,49.90
2018-07-31T10:19:44.794Z,49.41
2018-07-31T10:20:34.469Z,49.77
2018-07-31T10:21:34.426Z,50.07
2018-07-31T10:22:34.399Z,50.14
2018-07-31T10:23:34.373Z,50.71
2018-07-31T10:24:34.376Z,49.85
2018-07-31T10:25:34.318Z,49.82
2018-07-31T10:26:34.311Z,50.16
2018-07-31T10:27:34.265Z,49.38
2018-07-31T10:28:34.242Z,49.46
2018-07-31T10:29:34.222Z,48.69
2018-07-31T10:30:34.229Z,48.69
2018-07-31T10:31:34.191Z,48.33
2018-07-31T10:32:34.143Z,48.55
2018-07-31T10:33:34.129Z,49.43
2018-07-31T10:34:34.101Z,47.86
2018-07-31T10:35:34.072Z,48.25
2018-07-31T10:36:34.080Z,48.96
2018-07-31T10:37:34.084Z,48.84
2018-07-31T10:38:44.344Z,48.65
2018-07-31T10:39:33.979Z,49.75
2018-07-31T10:40:33.953Z,48.77
2018-07-31T10:41:33.931Z,47.49
2018-07-31T10:42:33.984Z,47.69
2018-07-31T10:43:33.896Z,49.08
2018-07-31T10:44:33.859Z,48.49
2018-07-31T10:45:33.841Z,47.31
2018-07-31T10:46:33.824Z,45.94
2018-07-31T10:47:33.812Z,47.76
2018-07-31T10:48:33.780Z,48.13
2018-07-31T10:49:33.752Z,48.30
2018-07-31T10:50:33.741Z,48.91
2018-07-31T10:51:33.717Z,48.74
2018-07-31T10:52:33.711Z,46.38
2018-07-31T10:53:33.671Z,46.88
2018-07-31T10:54:33.646Z,47.69
2018-07-31T10:55:33.613Z,46.80
2018-07-31T10:56:33.641Z,46.01
2018-07-31T10:57:33.595Z,46.11
2018-07-31T10:58:44.943Z,46.28
2018-07-31T10:59:33.557Z,47.27
2018-07-31T11:00:33.505Z,47.00
2018-07-31T11:01:33.491Z,47.99
2018-07-31T11:02:33.467Z,49.43
2018-07-31T11:03:33.471Z,49.82
2018-07-31T11:04:33.436Z,48.65
2018-07-31T11:05:33.399Z,47.89
2018-07-31T11:06:33.415Z,49.19
2018-07-31T11:07:33.376Z,48.01
2018-07-31T11:08:33.327Z,47.71
2018-07-31T11:09:33.313Z,48.13
2018-07-31T11:10:33.289Z,46.81
2018-07-31T11:11:33.267Z,48.18
2018-07-31T11:12:33.248Z,48.21
2018-07-31T11:13:33.242Z,48.01
2018-07-31T11:14:33.192Z,48.21
2018-07-31T11:15:33.181Z,48.21
2018-07-31T11:16:33.154Z,47.81
2018-07-31T11:17:33.142Z,47.83
2018-07-31T11:18:33.136Z,45.87
2018-07-31T11:19:33.081Z,46.83
2018-07-31T11:20:33.062Z,46.17
2018-07-31T11:21:33.057Z,46.06
2018-07-31T11:22:33.026Z,46.75
2018-07-31T11:23:33.023Z,46.75
2018-07-31T11:24:32.977Z,46.06
2018-07-31T11:25:32.960Z,46.75
2018-07-31T11:26:32.928Z,46.56
2018-07-31T11:27:32.914Z,46.78
2018-07-31T11:28:32.911Z,45.89
2018-07-31T11:29:32.883Z,45.72
2018-07-31T11:30:32.853Z,46.01
2018-07-31T11:31:32.823Z,46.01
2018-07-31T11:32:32.806Z,46.09
2018-07-31T11:33:32.815Z,46.48
2018-07-31T11:34:32.773Z,47.66
2018-07-31T11:35:32.751Z,46.28
2018-07-31T11:36:32.740Z,46.06
2018-07-31T11:37:32.700Z,45.97
2018-07-31T11:38:42.443Z,46.88
2018-07-31T11:39:32.669Z,49.33
2018-07-31T11:40:32.643Z,47.07
2018-07-31T11:41:32.624Z,46.19
2018-07-31T11:42:32.604Z,47.05
2018-07-31T11:43:32.576Z,47.59
2018-07-31T11:44:32.573Z,47.37
2018-07-31T11:45:32.539Z,47.17
2018-07-31T11:46:32.516Z,48.06
2018-07-31T11:47:32.492Z,48.45
2018-07-31T11:48:32.470Z,48.16
2018-07-31T11:49:32.488Z,49.55
2018-07-31T11:50:32.426Z,48.40
2018-07-31T11:51:32.424Z,47.13
2018-07-31T11:52:32.434Z,50.49
2018-07-31T11:53:32.366Z,46.75
2018-07-31T11:54:32.347Z,46.85
2018-07-31T11:55:32.344Z,47.64
2018-07-31T11:56:32.297Z,48.62
2018-07-31T11:57:32.272Z,47.99
2018-07-31T11:58:42.485Z,48.94
2018-07-31T11:59:32.229Z,50.83
2018-07-31T12:00:32.230Z,50.66
2018-07-31T12:01:32.196Z,48.18
2018-07-31T12:02:32.173Z,48.25
2018-07-31T12:03:32.148Z,48.85
2018-07-31T12:04:32.129Z,49.31
2018-07-31T12:05:32.119Z,49.60
2018-07-31T12:06:32.074Z,49.58
2018-07-31T12:07:32.051Z,49.68
2018-07-31T12:08:32.031Z,49.87
2018-07-31T12:09:32.008Z,50.98
2018-07-31T12:10:32.014Z,49.38
2018-07-31T12:11:32.010Z,49.68
2018-07-31T12:12:31.935Z,50.76
2018-07-31T12:13:31.905Z,50.88
2018-07-31T12:14:31.879Z,52.15
2018-07-31T12:15:31.859Z,50.68
2018-07-31T12:16:31.861Z,51.76
2018-07-31T12:17:31.805Z,50.66
2018-07-31T12:18:31.778Z,50.66
2018-07-31T12:19:31.757Z,50.76
2018-07-31T12:20:31.725Z,51.86
2018-07-31T12:21:31.728Z,52.25
2018-07-31T12:22:31.679Z,52.06
2018-07-31T12:23:31.667Z,50.02
2018-07-31T12:24:31.634Z,51.42
2018-07-31T12:25:31.598Z,51.05
2018-07-31T12:26:31.601Z,49.55
2018-07-31T12:27:31.551Z,51.05
2018-07-31T12:28:31.528Z,50.37
2018-07-31T12:29:31.511Z,49.38
2018-07-31T12:30:31.484Z,48.50
2018-07-31T12:31:31.453Z,49.31
2018-07-31T12:32:31.453Z,48.52
2018-07-31T12:33:31.416Z,49.60
2018-07-31T12:34:31.402Z,46.73
2018-07-31T12:35:31.369Z,47.42
2018-07-31T12:36:31.347Z,48.18
2018-07-31T12:37:31.340Z,49.14
2018-07-31T12:38:31.306Z,49.11
2018-07-31T12:39:31.276Z,50.68
2018-07-31T12:40:31.253Z,50.78
2018-07-31T12:41:31.239Z,51.27
2018-07-31T12:42:31.236Z,50.85
2018-07-31T12:43:31.191Z,50.95
2018-07-31T12:44:31.170Z,50.07
2018-07-31T12:45:31.135Z,52.55
2018-07-31T12:46:31.115Z,50.78
2018-07-31T12:47:31.131Z,51.56
2018-07-31T12:48:31.081Z,50.68
2018-07-31T12:49:31.045Z,51.15
2018-07-31T12:50:31.028Z,51.05
2018-07-31T12:51:31.000Z,51.54
2018-07-31T12:52:30.979Z,51.37